createdAt,value
2024-05-09T00:01:32.348Z,1066.00
2024-05-09T00:02:32.378Z,1056.00
2024-05-09T00:03:32.373Z,1065.00
2024-05-09T00:04:32.334Z,1053.00
2024-05-09T00:05:32.409Z,1042.00
2024-05-09T00:06:32.306Z,1034.00
2024-05-09T00:07:32.321Z,1046.00
2024-05-09T00:08:32.558Z,1036.00
2024-05-09T00:09:32.327Z,1035.00
2024-05-09T00:10:37.224Z,1027.00
2024-05-09T00:11:33.406Z,1029.00
2024-05-09T00:12:32.298Z,1032.00
2024-05-09T00:13:32.314Z,1033.00
2024-05-09T00:14:32.391Z,1039.00
2024-05-09T00:15:32.333Z,1055.00
2024-05-09T00:16:32.321Z,1053.00
2024-05-09T00:17:32.475Z,1045.00
2024-05-09T00:18:32.442Z,1043.00
2024-05-09T00:19:32.615Z,1039.00
2024-05-09T00:20:37.982Z,1073.00
2024-05-09T00:21:33.617Z,1074.00
2024-05-09T00:22:32.613Z,1069.00
2024-05-09T00:23:32.868Z,1059.00
2024-05-09T00:24:32.648Z,1056.00
2024-05-09T00:25:32.645Z,1060.00
2024-05-09T00:26:32.719Z,1064.00
2024-05-09T00:27:32.661Z,1063.00
2024-05-09T00:28:32.669Z,1065.00
2024-05-09T00:29:32.800Z,1066.00
2024-05-09T00:30:35.788Z,1076.00
2024-05-09T00:31:32.760Z,1077.00
2024-05-09T00:32:32.903Z,1080.00
2024-05-09T00:33:32.880Z,1082.00
2024-05-09T00:34:32.817Z,1084.00
2024-05-09T00:35:32.993Z,1091.00
2024-05-09T00:36:32.821Z,1086.00
2024-05-09T00:37:32.830Z,1091.00
2024-05-09T00:38:33.028Z,1088.00
2024-05-09T00:39:32.864Z,1088.00
2024-05-09T00:40:38.929Z,1077.00
2024-05-09T00:41:34.018Z,1079.00
2024-05-09T00:42:32.894Z,1082.00
2024-05-09T00:43:32.975Z,1089.00
2024-05-09T00:44:32.986Z,1093.00
2024-05-09T00:45:32.897Z,1094.00
2024-05-09T00:46:32.932Z,1083.00
2024-05-09T00:47:33.206Z,1076.00
2024-05-09T00:48:33.282Z,1065.00
2024-05-09T00:49:33.152Z,1056.00
2024-05-09T00:50:36.512Z,1048.00
2024-05-09T00:51:32.952Z,1048.00
2024-05-09T00:52:32.982Z,1050.00
2024-05-09T00:53:33.192Z,1048.00
2024-05-09T00:54:32.973Z,1020.00
2024-05-09T00:55:32.980Z,1013.00
2024-05-09T00:56:33.073Z,1003.00
2024-05-09T00:57:33.024Z,997.00
2024-05-09T00:58:33.021Z,1008.00
2024-05-09T00:59:33.104Z,1018.00
2024-05-09T01:00:38.717Z,1007.00
2024-05-09T01:01:34.190Z,1008.00
2024-05-09T01:02:33.155Z,1008.00
2024-05-09T01:03:33.327Z,1000.00
2024-05-09T01:04:33.091Z,1000.00
2024-05-09T01:05:33.218Z,1006.00
2024-05-09T01:06:33.064Z,1012.00
2024-05-09T01:07:33.148Z,1020.00
2024-05-09T01:08:33.254Z,1014.00
2024-05-09T01:09:33.151Z,1017.00
2024-05-09T01:10:35.127Z,1010.00
2024-05-09T01:11:33.265Z,1015.00
2024-05-09T01:12:33.307Z,1012.00
2024-05-09T01:13:33.313Z,1018.00
2024-05-09T01:14:33.357Z,1030.00
2024-05-09T01:15:33.342Z,1040.00
2024-05-09T01:16:33.355Z,1032.00
2024-05-09T01:17:33.505Z,1037.00
2024-05-09T01:18:33.476Z,1026.00
2024-05-09T01:19:33.468Z,1019.00
2024-05-09T01:20:41.019Z,1014.00
2024-05-09T01:21:34.424Z,1016.00
2024-05-09T01:22:33.427Z,1020.00
2024-05-09T01:23:33.572Z,1026.00
2024-05-09T01:24:33.495Z,1042.00
2024-05-09T01:25:33.518Z,1048.00
2024-05-09T01:26:33.599Z,1040.00
2024-05-09T01:27:33.535Z,1044.00
2024-05-09T01:28:33.563Z,1038.00
2024-05-09T01:29:33.789Z,1036.00
2024-05-09T01:30:36.464Z,1040.00
2024-05-09T01:31:34.030Z,1047.00
2024-05-09T01:32:34.173Z,1037.00
2024-05-09T01:33:34.082Z,1025.00
2024-05-09T01:34:34.033Z,1027.00
2024-05-09T01:35:34.081Z,1036.00
2024-05-09T01:36:34.041Z,1031.00
2024-05-09T01:37:34.170Z,1023.00
2024-05-09T01:38:34.314Z,1029.00
2024-05-09T01:39:34.202Z,1048.00
2024-05-09T01:40:38.441Z,1044.00
2024-05-09T01:41:35.285Z,1045.00
2024-05-09T01:42:34.267Z,1048.00
2024-05-09T01:43:34.343Z,1040.00
2024-05-09T01:44:34.358Z,1017.00
2024-05-09T01:45:34.317Z,1013.00
2024-05-09T01:46:34.340Z,1015.00
2024-05-09T01:47:34.460Z,1019.00
2024-05-09T01:48:34.422Z,1027.00
2024-05-09T01:49:34.424Z,1044.00
2024-05-09T01:50:39.401Z,1057.00
2024-05-09T01:51:35.439Z,1058.00
2024-05-09T01:52:34.466Z,1060.00
2024-05-09T01:53:34.508Z,1064.00
2024-05-09T01:54:34.519Z,1070.00
2024-05-09T01:55:34.573Z,1080.00
2024-05-09T01:56:34.685Z,1082.00
2024-05-09T01:57:34.534Z,1083.00
2024-05-09T01:58:34.632Z,1086.00
2024-05-09T01:59:34.879Z,1085.00
2024-05-09T02:00:40.040Z,1083.00
2024-05-09T02:01:55.629Z,1084.00
2024-05-09T02:02:36.102Z,1064.00
2024-05-09T02:03:35.205Z,1070.00
2024-05-09T02:04:35.201Z,1094.00
2024-05-09T02:05:35.167Z,1095.00
2024-05-09T02:06:35.077Z,1099.00
2024-05-09T02:07:35.102Z,1100.00
2024-05-09T02:08:35.210Z,1102.00
2024-05-09T02:09:35.135Z,1105.00
2024-05-09T02:10:35.300Z,1069.00
2024-05-09T02:11:35.236Z,1079.00
2024-05-09T02:12:35.202Z,1067.00
2024-05-09T02:13:35.192Z,1068.00
2024-05-09T02:14:35.279Z,1073.00
2024-05-09T02:15:35.224Z,1071.00
2024-05-09T02:16:35.230Z,1070.00
2024-05-09T02:17:35.419Z,1070.00
2024-05-09T02:18:35.298Z,1069.00
2024-05-09T02:19:35.400Z,1101.00
2024-05-09T02:20:36.839Z,1122.00
2024-05-09T02:21:35.397Z,1110.00
2024-05-09T02:22:35.390Z,1105.00
2024-05-09T02:23:35.451Z,1110.00
2024-05-09T02:24:35.405Z,1111.00
2024-05-09T02:25:35.480Z,1112.00
2024-05-09T02:26:35.548Z,1114.00
2024-05-09T02:27:35.508Z,1117.00
2024-05-09T02:28:35.531Z,1101.00
2024-05-09T02:29:35.651Z,1099.00
2024-05-09T02:30:40.187Z,1096.00
2024-05-09T02:31:36.714Z,1096.00
2024-05-09T02:32:35.841Z,1091.00
2024-05-09T02:33:36.001Z,1096.00
2024-05-09T02:34:35.779Z,1113.00
2024-05-09T02:35:35.836Z,1069.00
2024-05-09T02:36:35.772Z,1075.00
2024-05-09T02:37:35.779Z,1116.00
2024-05-09T02:38:35.830Z,1113.00
2024-05-09T02:39:35.790Z,1119.00
2024-05-09T02:40:38.363Z,1085.00
2024-05-09T02:41:35.931Z,1109.00
2024-05-09T02:42:35.861Z,1100.00
2024-05-09T02:43:35.868Z,1089.00
2024-05-09T02:44:35.978Z,1092.00
2024-05-09T02:45:35.928Z,1093.00
2024-05-09T02:46:35.902Z,1090.00
2024-05-09T02:47:36.051Z,1093.00
2024-05-09T02:48:36.096Z,1091.00
2024-05-09T02:49:36.064Z,1087.00
2024-05-09T02:50:39.168Z,1084.00
2024-05-09T02:51:36.059Z,1085.00
2024-05-09T02:52:36.005Z,1086.00
2024-05-09T02:53:36.055Z,1087.00
2024-05-09T02:54:36.026Z,1086.00
2024-05-09T02:55:36.035Z,1087.00
2024-05-09T02:56:36.092Z,1079.00
2024-05-09T02:57:36.049Z,1075.00
2024-05-09T02:58:36.067Z,1075.00
2024-05-09T02:59:36.118Z,1071.00
2024-05-09T03:00:39.647Z,1072.00
2024-05-09T03:01:37.178Z,1072.00
2024-05-09T03:02:36.125Z,1076.00
2024-05-09T03:03:36.370Z,1079.00
2024-05-09T03:04:36.312Z,1081.00
2024-05-09T03:05:36.378Z,1095.00
2024-05-09T03:06:36.187Z,1095.00
2024-05-09T03:07:36.195Z,1084.00
2024-05-09T03:08:36.303Z,1083.00
2024-05-09T03:09:36.196Z,1063.00
2024-05-09T03:10:38.313Z,1045.00
2024-05-09T03:11:36.363Z,1046.00
2024-05-09T03:12:37.965Z,1050.00
2024-05-09T03:13:36.275Z,1050.00
2024-05-09T03:14:36.313Z,1053.00
2024-05-09T03:15:36.353Z,1050.00
2024-05-09T03:16:36.301Z,1024.00
2024-05-09T03:17:36.566Z,1020.00
2024-05-09T03:18:36.356Z,1019.00
2024-05-09T03:19:36.338Z,1008.00
2024-05-09T03:20:37.150Z,1012.00
2024-05-09T03:21:36.321Z,1027.00
2024-05-09T03:22:36.337Z,1030.00
2024-05-09T03:23:36.370Z,1016.00
2024-05-09T03:24:36.351Z,1001.00
2024-05-09T03:25:36.369Z,1003.00
2024-05-09T03:26:36.423Z,994.00
2024-05-09T03:27:36.380Z,1005.00
2024-05-09T03:28:36.390Z,1010.00
2024-05-09T03:29:36.448Z,993.00
2024-05-09T03:30:41.385Z,988.00
2024-05-09T03:31:37.461Z,989.00
2024-05-09T03:32:36.548Z,995.00
2024-05-09T03:33:36.768Z,1002.00
2024-05-09T03:34:36.439Z,1013.00
2024-05-09T03:35:36.526Z,1028.00
2024-05-09T03:36:36.457Z,1038.00
2024-05-09T03:37:36.526Z,1047.00
2024-05-09T03:38:36.734Z,1053.00
2024-05-09T03:39:36.903Z,1043.00
2024-05-09T03:40:37.115Z,1041.00
2024-05-09T03:41:37.377Z,1025.00
2024-05-09T03:42:37.522Z,1010.00
2024-05-09T03:43:37.734Z,1013.00
2024-05-09T03:44:37.945Z,1011.00
2024-05-09T03:45:38.138Z,1015.00
2024-05-09T03:46:38.325Z,1005.00
2024-05-09T03:47:38.639Z,997.00
2024-05-09T03:48:38.772Z,991.00
2024-05-09T03:49:38.943Z,991.00
2024-05-09T03:50:39.182Z,996.00
2024-05-09T03:51:39.275Z,997.00
2024-05-09T03:52:39.456Z,996.00
2024-05-09T03:53:39.785Z,998.00
2024-05-09T03:54:39.853Z,1003.00
2024-05-09T03:55:40.060Z,998.00
2024-05-09T03:56:40.356Z,991.00
2024-05-09T03:57:40.457Z,973.00
2024-05-09T03:58:40.638Z,967.00
2024-05-09T03:59:40.923Z,972.00
2024-05-09T04:00:41.194Z,990.00
2024-05-09T04:01:41.372Z,1000.00
2024-05-09T04:02:41.561Z,988.00
2024-05-09T04:03:41.787Z,970.00
2024-05-09T04:04:41.968Z,966.00
2024-05-09T04:05:43.231Z,973.00
2024-05-09T04:06:42.158Z,972.00
2024-05-09T04:07:42.241Z,983.00
2024-05-09T04:08:42.340Z,987.00
2024-05-09T04:09:42.390Z,996.00
2024-05-09T04:10:42.464Z,996.00
2024-05-09T04:11:42.665Z,987.00
2024-05-09T04:12:42.613Z,983.00
2024-05-09T04:13:42.690Z,975.00
2024-05-09T04:14:42.904Z,971.00
2024-05-09T04:15:43.052Z,967.00
2024-05-09T04:16:43.255Z,941.00
2024-05-09T04:17:43.688Z,949.00
2024-05-09T04:18:43.762Z,956.00
2024-05-09T04:19:43.892Z,950.00
2024-05-09T04:20:44.058Z,945.00
2024-05-09T04:21:44.234Z,943.00
2024-05-09T04:22:44.484Z,946.00
2024-05-09T04:23:44.686Z,941.00
2024-05-09T04:24:44.838Z,939.00
2024-05-09T04:25:45.729Z,935.00
2024-05-09T04:26:45.104Z,939.00
2024-05-09T04:27:45.179Z,937.00
2024-05-09T04:28:45.269Z,928.00
2024-05-09T04:29:45.317Z,933.00
2024-05-09T04:30:45.414Z,930.00
2024-05-09T04:31:45.441Z,931.00
2024-05-09T04:32:45.594Z,928.00
2024-05-09T04:33:53.646Z,600.00
2024-05-09T04:34:53.640Z,600.00
2024-05-09T04:35:53.746Z,600.00
2024-05-09T04:36:53.967Z,600.00
2024-05-09T04:37:54.132Z,600.00
2024-05-09T04:38:54.153Z,600.00
2024-05-09T04:39:54.290Z,600.00
2024-05-09T04:40:54.573Z,601.00
2024-05-09T04:41:54.642Z,600.00
2024-05-09T04:42:54.780Z,600.00
2024-05-09T04:43:54.985Z,600.00
2024-05-09T04:44:58.258Z,598.00
2024-05-09T04:45:55.110Z,598.00
2024-05-09T04:46:55.130Z,592.00
2024-05-09T04:47:55.338Z,591.00
2024-05-09T04:48:55.224Z,588.00
2024-05-09T04:49:55.179Z,584.00
2024-05-09T04:50:55.185Z,602.00
2024-05-09T04:51:55.175Z,600.00
2024-05-09T04:52:55.211Z,601.00
2024-05-09T04:53:55.212Z,602.00
2024-05-09T04:54:56.902Z,603.00
2024-05-09T04:55:55.296Z,603.00
2024-05-09T04:56:56.003Z,604.00
2024-05-09T04:57:55.250Z,608.00
2024-05-09T04:58:55.303Z,612.00
2024-05-09T04:59:55.303Z,619.00
2024-05-09T05:00:55.320Z,621.00
2024-05-09T05:01:55.379Z,623.00
2024-05-09T05:02:55.492Z,622.00
2024-05-09T05:03:56.137Z,620.00
2024-05-09T05:04:55.432Z,624.00
2024-05-09T05:05:55.436Z,631.00
2024-05-09T05:06:56.020Z,632.00
2024-05-09T05:07:55.383Z,637.00
2024-05-09T05:08:55.367Z,632.00
2024-05-09T05:09:55.361Z,630.00
2024-05-09T05:10:55.526Z,634.00
2024-05-09T05:11:55.749Z,635.00
2024-05-09T05:12:55.420Z,646.00
2024-05-09T05:13:55.489Z,654.00
2024-05-09T05:14:55.466Z,659.00
2024-05-09T05:15:55.923Z,653.00
2024-05-09T05:16:55.484Z,655.00
2024-05-09T05:17:55.702Z,652.00
2024-05-09T05:18:55.649Z,649.00
2024-05-09T05:19:55.724Z,642.00
2024-05-09T05:20:55.724Z,641.00
2024-05-09T05:21:55.554Z,639.00
2024-05-09T05:22:55.633Z,643.00
2024-05-09T05:23:55.627Z,644.00
2024-05-09T05:24:55.670Z,646.00
2024-05-09T05:25:55.977Z,648.00
2024-05-09T05:26:55.809Z,638.00
2024-05-09T05:27:55.915Z,632.00
2024-05-09T05:28:56.007Z,634.00
2024-05-09T05:29:56.071Z,637.00
2024-05-09T05:30:56.194Z,637.00
2024-05-09T05:31:56.185Z,635.00
2024-05-09T05:32:56.370Z,638.00
2024-05-09T05:33:56.503Z,644.00
2024-05-09T05:34:56.653Z,645.00
2024-05-09T05:35:56.792Z,639.00
2024-05-09T05:36:56.959Z,641.00
2024-05-09T05:37:57.180Z,646.00
2024-05-09T05:38:57.356Z,643.00
2024-05-09T05:39:57.465Z,638.00
2024-05-09T05:40:57.683Z,632.00
2024-05-09T05:41:57.791Z,620.00
2024-05-09T05:42:57.988Z,617.00
2024-05-09T05:43:58.205Z,613.00
2024-05-09T05:44:58.318Z,619.00
2024-05-09T05:45:58.502Z,626.00
2024-05-09T05:46:58.682Z,634.00
2024-05-09T05:47:59.026Z,647.00
2024-05-09T05:48:59.164Z,643.00
2024-05-09T05:49:59.246Z,635.00
2024-05-09T05:51:01.934Z,628.00
2024-05-09T05:51:59.418Z,622.00
2024-05-09T05:52:59.452Z,601.00
2024-05-09T05:53:59.437Z,590.00
2024-05-09T05:54:59.449Z,582.00
2024-05-09T05:55:59.483Z,584.00
2024-05-09T05:56:59.620Z,603.00
2024-05-09T05:57:59.478Z,613.00
2024-05-09T05:58:59.538Z,615.00
2024-05-09T05:59:59.459Z,619.00
2024-05-09T06:00:59.495Z,621.00
2024-05-09T06:01:59.505Z,622.00
2024-05-09T06:02:59.597Z,624.00
2024-05-09T06:03:59.648Z,624.00
2024-05-09T06:04:59.551Z,625.00
2024-05-09T06:05:59.659Z,626.00
2024-05-09T06:06:59.500Z,625.00
2024-05-09T06:07:59.583Z,623.00
2024-05-09T06:08:59.499Z,625.00
2024-05-09T06:09:59.509Z,629.00
2024-05-09T06:10:59.629Z,628.00
2024-05-09T06:11:59.625Z,627.00
2024-05-09T06:12:59.632Z,630.00
2024-05-09T06:13:59.708Z,635.00
2024-05-09T06:14:59.714Z,637.00
2024-05-09T06:15:59.761Z,636.00
2024-05-09T06:16:59.820Z,622.00
2024-05-09T06:18:00.097Z,620.00
2024-05-09T06:18:59.983Z,613.00
2024-05-09T06:19:59.978Z,607.00
2024-05-09T06:21:00.091Z,604.00
2024-05-09T06:22:00.164Z,602.00
2024-05-09T06:23:00.378Z,601.00
2024-05-09T06:24:02.512Z,601.00
2024-05-09T06:25:00.502Z,608.00
2024-05-09T06:26:00.530Z,614.00
2024-05-09T06:27:00.475Z,605.00
2024-05-09T06:28:00.624Z,600.00
2024-05-09T06:29:00.546Z,600.00
2024-05-09T06:30:00.513Z,604.00
2024-05-09T06:31:00.514Z,603.00
2024-05-09T06:32:00.693Z,608.00
2024-05-09T06:33:00.720Z,600.00
2024-05-09T06:34:00.653Z,600.00
2024-05-09T06:35:00.547Z,600.00
2024-05-09T06:36:00.488Z,600.00
2024-05-09T06:37:00.499Z,602.00
2024-05-09T06:38:00.534Z,605.00
2024-05-09T06:39:00.482Z,603.00
2024-05-09T06:40:00.468Z,600.00
2024-05-09T06:41:00.525Z,604.00
2024-05-09T06:42:00.466Z,601.00
2024-05-09T06:43:00.586Z,602.00
2024-05-09T06:44:00.642Z,606.00
2024-05-09T06:45:00.598Z,610.00
2024-05-09T06:46:00.546Z,623.00
2024-05-09T06:47:00.654Z,631.00
2024-05-09T06:48:00.790Z,635.00
2024-05-09T06:49:00.605Z,627.00
2024-05-09T06:50:00.624Z,632.00
2024-05-09T06:51:00.578Z,628.00
2024-05-09T06:52:00.487Z,624.00
2024-05-09T06:53:00.638Z,619.00
2024-05-09T06:54:00.496Z,623.00
2024-05-09T06:55:00.488Z,625.00
2024-05-09T06:56:00.509Z,628.00
2024-05-09T06:57:00.489Z,621.00
2024-05-09T06:58:00.484Z,620.00
2024-05-09T06:59:00.628Z,614.00
2024-05-09T07:00:00.450Z,612.00
2024-05-09T07:01:00.462Z,606.00
2024-05-09T07:02:00.462Z,609.00
2024-05-09T07:03:03.502Z,620.00
2024-05-09T07:04:00.434Z,620.00
2024-05-09T07:05:00.519Z,616.00
2024-05-09T07:06:00.422Z,605.00
2024-05-09T07:07:00.388Z,593.00
2024-05-09T07:08:00.436Z,582.00
2024-05-09T07:09:00.359Z,601.00
2024-05-09T07:10:00.353Z,600.00
2024-05-09T07:11:00.487Z,600.00
2024-05-09T07:12:00.396Z,601.00
2024-05-09T07:13:00.346Z,601.00
2024-05-09T07:14:00.351Z,610.00
2024-05-09T07:15:00.328Z,620.00
2024-05-09T07:16:00.341Z,616.00
2024-05-09T07:17:00.353Z,616.00
2024-05-09T07:18:00.443Z,609.00
2024-05-09T07:19:00.498Z,614.00
2024-05-09T07:20:00.471Z,621.00
2024-05-09T07:21:00.273Z,620.00
2024-05-09T07:22:00.254Z,629.00
2024-05-09T07:23:00.289Z,631.00
2024-05-09T07:24:00.246Z,639.00
2024-05-09T07:25:00.202Z,639.00
2024-05-09T07:26:00.237Z,643.00
2024-05-09T07:27:00.154Z,635.00
2024-05-09T07:28:00.160Z,630.00
2024-05-09T07:29:00.134Z,628.00
2024-05-09T07:30:00.143Z,607.00
2024-05-09T07:31:00.090Z,600.00
2024-05-09T07:32:00.195Z,601.00
2024-05-09T07:33:00.605Z,604.00
2024-05-09T07:34:00.524Z,600.00
2024-05-09T07:35:00.260Z,600.00
2024-05-09T07:36:00.265Z,600.00
2024-05-09T07:37:00.308Z,600.00
2024-05-09T07:38:00.408Z,600.00
2024-05-09T07:39:00.386Z,601.00
2024-05-09T07:40:00.464Z,600.00
2024-05-09T07:41:00.520Z,600.00
2024-05-09T07:42:00.399Z,601.00
2024-05-09T07:43:00.418Z,606.00
2024-05-09T07:44:00.471Z,617.00
2024-05-09T07:45:20.540Z,622.00
2024-05-09T07:46:48.260Z,622.00
2024-05-09T07:51:48.223Z,623.00
2024-05-09T07:53:07.623Z,623.00
2024-05-09T07:53:24.937Z,623.00
2024-05-09T07:53:35.948Z,624.00
2024-05-09T07:54:01.897Z,624.00
2024-05-09T07:55:00.599Z,624.00
2024-05-09T07:56:00.369Z,630.00
2024-05-09T07:57:00.317Z,641.00
2024-05-09T07:58:00.182Z,646.00
2024-05-09T07:59:00.129Z,652.00
2024-05-09T08:00:00.185Z,646.00
2024-05-09T08:01:00.279Z,646.00
2024-05-09T08:02:00.573Z,635.00
2024-05-09T08:03:01.439Z,628.00
2024-05-09T08:04:00.388Z,612.00
2024-05-09T08:05:00.361Z,599.00
2024-05-09T08:06:00.156Z,588.00
2024-05-09T08:07:00.120Z,584.00
2024-05-09T08:08:00.103Z,605.00
2024-05-09T08:09:03.101Z,615.00
2024-05-09T08:10:01.039Z,616.00
2024-05-09T08:10:59.959Z,608.00
2024-05-09T08:11:59.952Z,594.00
2024-05-09T08:12:59.996Z,590.00
2024-05-09T08:13:59.926Z,579.00
2024-05-09T08:14:59.912Z,596.00
2024-05-09T08:15:59.964Z,605.00
2024-05-09T08:16:59.910Z,615.00
2024-05-09T08:18:00.075Z,615.00
2024-05-09T08:19:00.001Z,605.00
2024-05-09T08:20:00.356Z,610.00
2024-05-09T08:20:59.759Z,611.00
2024-05-09T08:21:59.724Z,601.00
2024-05-09T08:22:59.700Z,600.00
2024-05-09T08:24:00.574Z,603.00
2024-05-09T08:24:59.681Z,601.00
2024-05-09T08:25:59.625Z,600.00
2024-05-09T08:26:59.613Z,599.00
2024-05-09T08:27:59.636Z,600.00
2024-05-09T08:28:59.581Z,606.00
2024-05-09T08:29:59.586Z,622.00
2024-05-09T08:31:01.628Z,620.00
2024-05-09T08:31:59.647Z,612.00
2024-05-09T08:32:59.638Z,607.00
2024-05-09T08:33:59.715Z,611.00
2024-05-09T08:34:59.558Z,615.00
2024-05-09T08:35:59.488Z,620.00
2024-05-09T08:37:03.927Z,634.00
2024-05-09T08:38:00.471Z,634.00
2024-05-09T08:38:59.385Z,634.00
2024-05-09T08:39:59.363Z,630.00
2024-05-09T08:40:59.344Z,621.00
2024-05-09T08:41:59.306Z,616.00
2024-05-09T08:42:59.310Z,607.00
2024-05-09T08:43:59.263Z,602.00
2024-05-09T08:44:59.219Z,600.00
2024-05-09T08:45:59.224Z,600.00
2024-05-09T08:46:59.115Z,600.00
2024-05-09T08:47:59.234Z,600.00
2024-05-09T08:48:59.145Z,605.00
2024-05-09T08:49:59.036Z,601.00
2024-05-09T08:50:58.965Z,602.00
2024-05-09T08:51:58.921Z,603.00
2024-05-09T08:52:58.850Z,612.00
2024-05-09T08:53:58.800Z,628.00
2024-05-09T08:54:58.789Z,628.00
2024-05-09T08:55:58.723Z,635.00
2024-05-09T08:56:58.697Z,636.00
2024-05-09T08:57:58.705Z,647.00
2024-05-09T08:58:58.651Z,653.00
2024-05-09T08:59:58.644Z,671.00
2024-05-09T09:00:58.679Z,659.00
2024-05-09T09:01:58.657Z,654.00
2024-05-09T09:02:58.588Z,658.00
2024-05-09T09:03:58.659Z,678.00
2024-05-09T09:04:58.525Z,711.00
2024-05-09T09:05:58.458Z,696.00
2024-05-09T09:06:59.760Z,684.00
2024-05-09T09:07:58.435Z,681.00
2024-05-09T09:08:58.445Z,661.00
2024-05-09T09:09:58.482Z,643.00
2024-05-09T09:10:58.476Z,635.00
2024-05-09T09:11:58.486Z,636.00
2024-05-09T09:12:58.506Z,625.00
2024-05-09T09:13:58.507Z,616.00
2024-05-09T09:14:58.557Z,600.00
2024-05-09T09:15:59.259Z,600.00
2024-05-09T09:16:58.547Z,603.00
2024-05-09T09:17:58.663Z,601.00
2024-05-09T09:18:58.557Z,601.00
2024-05-09T09:19:58.524Z,600.00
2024-05-09T09:20:58.485Z,606.00
2024-05-09T09:21:58.499Z,621.00
2024-05-09T09:22:58.436Z,634.00
2024-05-09T09:23:58.472Z,639.00
2024-05-09T09:24:58.475Z,642.00
2024-05-09T09:25:58.488Z,644.00
2024-05-09T09:26:58.463Z,630.00
2024-05-09T09:27:58.724Z,646.00
2024-05-09T09:28:58.479Z,649.00
2024-05-09T09:29:58.504Z,647.00
2024-05-09T09:30:58.517Z,660.00
2024-05-09T09:31:58.489Z,647.00
2024-05-09T09:32:58.589Z,648.00
2024-05-09T09:33:58.585Z,655.00
2024-05-09T09:34:58.497Z,661.00
2024-05-09T09:35:58.473Z,649.00
2024-05-09T09:36:58.517Z,640.00
2024-05-09T09:37:58.446Z,636.00
2024-05-09T09:38:58.458Z,641.00
2024-05-09T09:39:58.424Z,645.00
2024-05-09T09:40:58.465Z,652.00
2024-05-09T09:41:58.329Z,664.00
2024-05-09T09:42:58.386Z,682.00
2024-05-09T09:43:58.272Z,692.00
2024-05-09T09:45:04.661Z,687.00
2024-05-09T09:45:59.194Z,687.00
2024-05-09T09:46:58.211Z,678.00
2024-05-09T09:47:58.164Z,672.00
2024-05-09T09:48:58.144Z,671.00
2024-05-09T09:49:57.995Z,678.00
2024-05-09T09:50:57.934Z,661.00
2024-05-09T09:51:57.878Z,698.00
2024-05-09T09:52:57.819Z,731.00
2024-05-09T09:53:57.808Z,711.00
2024-05-09T09:54:57.846Z,661.00
2024-05-09T09:55:57.799Z,663.00
2024-05-09T09:56:57.813Z,653.00
2024-05-09T09:57:57.826Z,644.00
2024-05-09T09:58:57.745Z,640.00
2024-05-09T09:59:57.736Z,616.00
2024-05-09T10:00:57.848Z,609.00
2024-05-09T10:01:57.803Z,607.00
2024-05-09T10:02:57.727Z,606.00
2024-05-09T10:03:57.701Z,613.00
2024-05-09T10:04:57.688Z,600.00
2024-05-09T10:05:57.706Z,607.00
2024-05-09T10:06:57.690Z,614.00
2024-05-09T10:07:57.628Z,600.00
2024-05-09T10:08:57.612Z,607.00
2024-05-09T10:09:57.642Z,607.00
2024-05-09T10:10:57.753Z,603.00
2024-05-09T10:12:57.642Z,606.00
2024-05-09T10:13:57.554Z,607.00
2024-05-09T10:14:57.456Z,603.00
2024-05-09T10:15:57.440Z,611.00
2024-05-09T10:16:57.332Z,608.00
2024-05-09T10:17:57.361Z,606.00
2024-05-09T10:18:57.402Z,608.00
2024-05-09T10:19:57.362Z,596.00
2024-05-09T10:20:57.279Z,609.00
2024-05-09T10:21:57.323Z,601.00
2024-05-09T10:22:57.230Z,607.00
2024-05-09T10:23:57.240Z,593.00
2024-05-09T10:24:57.326Z,605.00
2024-05-09T10:25:57.233Z,622.00
2024-05-09T10:26:57.211Z,624.00
2024-05-09T10:27:57.217Z,627.00
2024-05-09T10:28:57.182Z,635.00
2024-05-09T10:29:57.232Z,639.00
2024-05-09T10:30:57.245Z,614.00
2024-05-09T10:31:57.148Z,606.00
2024-05-09T10:32:57.166Z,612.00
2024-05-09T10:33:57.204Z,625.00
2024-05-09T10:34:57.152Z,632.00
2024-05-09T10:35:57.059Z,621.00
2024-05-09T10:36:57.117Z,608.00
2024-05-09T10:37:57.025Z,600.00
2024-05-09T10:38:57.022Z,603.00
2024-05-09T10:39:57.054Z,608.00
2024-05-09T10:40:57.022Z,610.00
2024-05-09T10:41:57.012Z,599.00
2024-05-09T10:42:57.202Z,594.00
2024-05-09T10:43:56.975Z,610.00
2024-05-09T10:44:56.970Z,609.00
2024-05-09T10:45:56.974Z,600.00
2024-05-09T10:46:57.949Z,592.00
2024-05-09T10:47:56.951Z,586.00
2024-05-09T10:48:56.858Z,577.00
2024-05-09T10:49:56.711Z,585.00
2024-05-09T10:50:56.602Z,559.00
2024-05-09T10:51:56.612Z,591.00
2024-05-09T10:52:56.448Z,612.00
2024-05-09T10:53:56.390Z,608.00
2024-05-09T10:54:56.311Z,606.00
2024-05-09T10:55:56.195Z,646.00
2024-05-09T10:56:56.149Z,660.00
2024-05-09T10:57:56.106Z,657.00
2024-05-09T10:58:55.992Z,678.00
2024-05-09T10:59:55.866Z,678.00
2024-05-09T11:00:55.953Z,657.00
2024-05-09T11:01:55.823Z,667.00
2024-05-09T11:02:55.701Z,642.00
2024-05-09T11:03:55.757Z,641.00
2024-05-09T11:04:55.766Z,654.00
2024-05-09T11:05:55.657Z,650.00
2024-05-09T11:06:55.565Z,646.00
2024-05-09T11:07:55.460Z,646.00
2024-05-09T11:08:55.456Z,628.00
2024-05-09T11:09:55.485Z,619.00
2024-05-09T11:10:55.524Z,614.00
2024-05-09T11:11:55.483Z,608.00
2024-05-09T11:12:55.486Z,603.00
2024-05-09T11:13:55.439Z,607.00
2024-05-09T11:14:55.398Z,627.00
2024-05-09T11:15:55.461Z,643.00
2024-05-09T11:16:55.534Z,654.00
2024-05-09T11:17:55.779Z,661.00
2024-05-09T11:18:56.296Z,664.00
2024-05-09T11:19:55.804Z,707.00
2024-05-09T11:20:55.740Z,759.00
2024-05-09T11:21:55.732Z,744.00
2024-05-09T11:22:55.628Z,719.00
2024-05-09T11:23:55.637Z,732.00
2024-05-09T11:24:55.825Z,658.00
2024-05-09T11:25:55.833Z,638.00
2024-05-09T11:26:55.969Z,633.00
2024-05-09T11:27:56.123Z,616.00
2024-05-09T11:28:56.219Z,610.00
2024-05-09T11:29:56.332Z,635.00
2024-05-09T11:30:56.477Z,635.00
2024-05-09T11:31:56.624Z,645.00
2024-05-09T11:32:56.975Z,633.00
2024-05-09T11:33:57.182Z,639.00
2024-05-09T11:34:57.125Z,640.00
2024-05-09T11:35:57.284Z,664.00
2024-05-09T11:36:57.432Z,731.00
2024-05-09T11:37:57.530Z,708.00
2024-05-09T11:38:57.691Z,725.00
2024-05-09T11:39:57.850Z,731.00
2024-05-09T11:40:57.998Z,673.00
2024-05-09T11:41:58.163Z,627.00
2024-05-09T11:42:58.338Z,604.00
2024-05-09T11:43:58.460Z,606.00
2024-05-09T11:44:58.600Z,600.00
2024-05-09T11:45:58.822Z,606.00
2024-05-09T11:46:58.874Z,602.00
2024-05-09T11:47:59.120Z,645.00
2024-05-09T11:48:59.326Z,673.00
2024-05-09T11:49:59.510Z,726.00
2024-05-09T11:50:59.445Z,746.00
2024-05-09T11:51:59.675Z,764.00
2024-05-09T11:52:59.649Z,779.00
2024-05-09T11:53:59.789Z,714.00
2024-05-09T11:54:59.981Z,699.00
2024-05-09T11:56:00.009Z,695.00
2024-05-09T11:57:00.230Z,712.00
2024-05-09T11:58:00.426Z,689.00
2024-05-09T11:59:00.495Z,724.00
2024-05-09T12:00:00.642Z,755.00
2024-05-09T12:01:00.863Z,697.00
2024-05-09T12:02:00.991Z,652.00
2024-05-09T12:03:00.981Z,637.00
2024-05-09T12:04:01.409Z,658.00
2024-05-09T12:05:01.163Z,720.00
2024-05-09T12:06:01.179Z,731.00
2024-05-09T12:07:00.981Z,788.00
2024-05-09T12:08:00.857Z,798.00
2024-05-09T12:09:00.806Z,779.00
2024-05-09T12:10:00.806Z,733.00
2024-05-09T12:11:00.971Z,675.00
2024-05-09T12:12:00.617Z,649.00
2024-05-09T12:13:00.611Z,638.00
2024-05-09T12:14:00.504Z,618.00
2024-05-09T12:15:00.498Z,608.00
2024-05-09T12:16:00.535Z,606.00
2024-05-09T12:17:00.467Z,600.00
2024-05-09T12:18:03.472Z,615.00
2024-05-09T12:19:00.346Z,633.00
2024-05-09T12:20:00.242Z,651.00
2024-05-09T12:21:00.128Z,639.00
2024-05-09T12:22:00.187Z,639.00
2024-05-09T12:23:00.047Z,626.00
2024-05-09T12:23:59.964Z,628.00
2024-05-09T12:24:59.908Z,627.00
2024-05-09T12:25:59.833Z,630.00
2024-05-09T12:27:00.570Z,641.00